Mahajanga, Madagascar
Current Conditions -  °F | °C
As of 12:01 PM on Friday 19 Dec 2014 (Local Time) from FMNM Reporting Station
Scattered Clouds Scattered Clouds  
Wind Chill: 88°   Ceiling: Unl
Heat Index: 100°   Visibility: 6mi
Dew Point: 77°   Wind: 7mph
Humidity: 70%   Direction: 340°NNW
Pressure: 29.88"   Gusts: NA
Location:  15.72°S, 46.31°E
Report Text: FMNM 190901Z 34006KT 9999 SCT020CB SCT230 31/25 Q1012 NOSIG
Loading
Personal Weather Stations






























Interactive Weather Map New forecast layout! Learn more

10-Day Weather Forecast

Advertisements
Track Severe Weather on mobile